createdAt,value
2022-10-04T00:01:44.132Z,83.21
2022-10-04T00:04:18.316Z,83.43
2022-10-04T00:07:01.598Z,83.65
2022-10-04T00:09:43.289Z,83.43
2022-10-04T00:12:23.855Z,83.77
2022-10-04T00:14:55.259Z,83.83
2022-10-04T00:17:28.175Z,83.53
2022-10-04T00:19:56.407Z,83.39
2022-10-04T00:22:26.233Z,83.43
2022-10-04T00:25:10.045Z,82.98
2022-10-04T00:27:38.970Z,84.19
2022-10-04T00:30:22.127Z,84.35
2022-10-04T00:33:03.588Z,85.86
2022-10-04T00:35:30.970Z,85.88
2022-10-04T00:38:00.911Z,86.91
2022-10-04T00:40:33.797Z,85.62
2022-10-04T00:43:15.950Z,85.72
2022-10-04T00:45:52.407Z,86.02
2022-10-04T00:48:44.004Z,86.70
2022-10-04T00:51:25.322Z,87.62
2022-10-04T00:53:57.353Z,87.93
2022-10-04T00:56:31.280Z,87.22
2022-10-04T00:59:21.188Z,86.57
2022-10-04T01:01:58.415Z,86.77
2022-10-04T01:04:28.886Z,86.44
2022-10-04T01:07:01.381Z,87.03
2022-10-04T01:09:32.838Z,86.70
2022-10-04T01:12:05.820Z,87.58
2022-10-04T01:14:48.858Z,87.43
2022-10-04T01:17:16.107Z,87.05
2022-10-04T01:19:53.575Z,87.15
2022-10-04T01:22:29.802Z,89.04
2022-10-04T01:24:57.453Z,88.97
2022-10-04T01:27:32.185Z,89.67
2022-10-04T01:30:00.546Z,90.10
2022-10-04T01:32:28.160Z,91.23
2022-10-04T01:34:56.326Z,91.58
2022-10-04T01:37:23.868Z,92.15
2022-10-04T01:39:51.318Z,92.34
2022-10-04T01:42:23.729Z,93.33
2022-10-04T01:44:57.253Z,94.60
2022-10-04T01:47:31.262Z,94.79
2022-10-04T01:50:03.619Z,95.11
2022-10-04T01:52:41.848Z,95.03
2022-10-04T01:55:15.721Z,95.85
2022-10-04T01:57:50.492Z,95.67
2022-10-04T02:00:21.568Z,96.28
2022-10-04T02:02:58.433Z,96.13
2022-10-04T02:05:35.119Z,97.05
2022-10-04T02:08:10.414Z,98.21
2022-10-04T02:10:43.583Z,98.99
2022-10-04T02:13:18.118Z,99.06
2022-10-04T02:15:47.607Z,98.98
2022-10-04T02:18:18.670Z,99.31
2022-10-04T02:20:49.619Z,99.22
2022-10-04T02:23:19.994Z,99.74
2022-10-04T02:25:47.638Z,100.00
2022-10-04T02:28:16.541Z,100.00
2022-10-04T02:31:08.212Z,100.00
2022-10-04T02:33:44.887Z,100.00
2022-10-04T02:36:13.876Z,100.00
2022-10-04T02:38:55.274Z,100.00
2022-10-04T02:41:41.479Z,100.00
2022-10-04T02:44:20.517Z,100.00
2022-10-04T02:46:57.261Z,100.00
2022-10-04T02:49:38.573Z,100.00
2022-10-04T02:52:10.253Z,100.00
2022-10-04T02:54:49.614Z,100.00
2022-10-04T02:57:19.899Z,100.00
2022-10-04T02:59:48.636Z,100.00
2022-10-04T03:02:31.102Z,100.00
2022-10-04T03:05:05.975Z,100.00
2022-10-04T03:07:35.886Z,100.00
2022-10-04T03:10:08.481Z,100.00
2022-10-04T03:12:37.518Z,100.00
2022-10-04T03:15:09.511Z,100.00
2022-10-04T03:17:36.927Z,99.63
2022-10-04T03:20:06.091Z,99.26
2022-10-04T03:22:33.466Z,98.09
2022-10-04T03:25:01.619Z,95.06
2022-10-04T03:27:33.983Z,92.92
2022-10-04T03:30:02.062Z,92.25
2022-10-04T03:32:31.195Z,91.91
2022-10-04T03:35:05.991Z,91.44
2022-10-04T03:37:37.679Z,92.44
2022-10-04T03:40:09.783Z,92.18
2022-10-04T03:42:39.317Z,92.35
2022-10-04T03:45:11.743Z,92.35
2022-10-04T03:47:43.355Z,92.15
2022-10-04T03:50:13.685Z,91.89
2022-10-04T03:52:50.850Z,91.84
2022-10-04T03:55:19.692Z,93.19
2022-10-04T03:57:47.291Z,93.19
2022-10-04T04:00:17.418Z,92.57
2022-10-04T04:02:49.083Z,94.05
2022-10-04T04:05:25.504Z,93.34
2022-10-04T04:08:14.625Z,92.61
2022-10-04T04:10:55.178Z,92.84
2022-10-04T04:13:27.615Z,92.65
2022-10-04T04:15:57.027Z,93.47
2022-10-04T04:18:28.033Z,93.40
2022-10-04T04:20:59.118Z,94.31
2022-10-04T04:23:32.965Z,94.97
2022-10-04T04:26:12.042Z,96.03
2022-10-04T04:28:44.910Z,96.83
2022-10-04T04:31:24.235Z,98.06
2022-10-04T04:34:00.677Z,98.77
2022-10-04T04:36:40.062Z,99.50
2022-10-04T04:39:34.684Z,98.95
2022-10-04T04:42:06.839Z,98.77
2022-10-04T04:44:36.394Z,98.97
2022-10-04T04:47:09.559Z,98.72
2022-10-04T04:49:40.198Z,99.19
2022-10-04T04:52:16.872Z,99.57
2022-10-04T04:54:47.426Z,100.00
2022-10-04T04:57:17.960Z,100.00
2022-10-04T04:59:49.446Z,100.00
2022-10-04T05:02:37.809Z,100.00
2022-10-04T05:05:16.502Z,100.00
2022-10-04T05:07:43.879Z,100.00
2022-10-04T05:10:33.803Z,100.00
2022-10-04T05:13:04.319Z,100.00
2022-10-04T05:15:35.290Z,100.00
2022-10-04T05:18:15.395Z,100.00
2022-10-04T05:20:50.355Z,100.00
2022-10-04T05:23:17.780Z,97.32
2022-10-04T05:25:48.032Z,92.94
2022-10-04T05:28:17.676Z,91.60
2022-10-04T05:31:10.844Z,92.30
2022-10-04T05:33:54.061Z,92.64
2022-10-04T05:36:30.312Z,91.81
2022-10-04T05:39:06.754Z,90.98
2022-10-04T05:41:47.125Z,89.62
2022-10-04T05:44:28.966Z,88.02
2022-10-04T05:46:59.546Z,85.69
2022-10-04T05:49:33.645Z,84.85
2022-10-04T05:52:13.914Z,86.00
2022-10-04T05:54:41.564Z,86.36
2022-10-04T05:57:50.862Z,86.56
2022-10-04T06:00:21.086Z,86.21
2022-10-04T06:03:13.824Z,85.75
2022-10-04T06:05:49.848Z,86.94
2022-10-04T06:08:26.113Z,86.81
2022-10-04T06:11:05.528Z,86.11
2022-10-04T06:13:59.458Z,85.66
2022-10-04T06:16:45.158Z,82.96
2022-10-04T06:19:43.375Z,80.31
2022-10-04T06:22:22.745Z,77.57
2022-10-04T06:25:13.990Z,75.53
2022-10-04T06:27:44.879Z,74.90
2022-10-04T06:30:16.586Z,72.78
2022-10-04T06:33:11.716Z,72.42
2022-10-04T06:36:18.783Z,73.86
2022-10-04T06:39:04.416Z,75.77
2022-10-04T06:41:39.392Z,77.02
2022-10-04T06:44:14.667Z,78.35
2022-10-04T06:47:08.921Z,79.23
2022-10-04T06:49:48.814Z,78.84
2022-10-04T06:52:31.139Z,80.44
2022-10-04T06:55:16.867Z,79.23
2022-10-04T06:58:17.438Z,78.74
2022-10-04T07:00:55.435Z,78.34
2022-10-04T07:03:49.243Z,79.38
2022-10-04T07:06:30.995Z,78.96
2022-10-04T07:09:03.423Z,78.95
2022-10-04T07:11:45.861Z,79.95
2022-10-04T07:14:18.719Z,81.04
2022-10-04T07:16:54.716Z,80.60
2022-10-04T07:19:32.565Z,80.76
2022-10-04T07:22:10.191Z,81.43
2022-10-04T07:25:02.354Z,79.32
2022-10-04T07:27:34.542Z,78.92
2022-10-04T07:30:06.922Z,78.73
2022-10-04T07:32:44.054Z,77.86
2022-10-04T07:35:15.012Z,74.40
2022-10-04T07:38:15.812Z,71.01
2022-10-04T07:41:08.444Z,66.07
2022-10-04T07:43:49.736Z,61.55
2022-10-04T07:46:17.023Z,58.85
2022-10-04T07:48:44.619Z,57.32
2022-10-04T07:51:44.815Z,54.18
2022-10-04T07:54:22.407Z,55.77
2022-10-04T07:57:01.303Z,55.71
2022-10-04T07:59:37.526Z,58.82
2022-10-04T08:02:41.372Z,62.98
2022-10-04T08:05:21.883Z,67.92
2022-10-04T08:08:17.205Z,70.88
2022-10-04T08:11:06.443Z,70.50
2022-10-04T08:13:52.585Z,70.58
2022-10-04T08:16:34.449Z,72.17
2022-10-04T08:19:19.834Z,71.10
2022-10-04T08:22:05.592Z,68.90
2022-10-04T08:24:53.884Z,70.12
2022-10-04T08:28:08.464Z,70.17
2022-10-04T08:31:27.852Z,72.14
2022-10-04T08:34:17.890Z,71.75
2022-10-04T08:40:19.119Z,71.52
2022-10-04T08:43:04.435Z,63.56
2022-10-04T08:45:52.840Z,57.62
2022-10-04T08:48:32.963Z,54.88
2022-10-04T08:51:24.952Z,50.88
2022-10-04T08:54:25.090Z,48.02
2022-10-04T08:57:20.104Z,47.57
2022-10-04T09:00:15.221Z,48.10
2022-10-04T09:03:01.568Z,48.83
2022-10-04T09:05:47.592Z,49.82
2022-10-04T09:08:26.650Z,49.29
2022-10-04T09:11:25.679Z,47.32
2022-10-04T09:14:08.048Z,49.50
2022-10-04T09:17:22.338Z,47.55
2022-10-04T09:20:37.764Z,46.16
2022-10-04T09:23:14.886Z,46.71
2022-10-04T09:26:06.545Z,47.60
2022-10-04T09:28:45.929Z,49.75
2022-10-04T09:31:39.862Z,50.23
2022-10-04T09:34:38.697Z,49.05
2022-10-04T09:37:32.654Z,51.62
2022-10-04T09:40:37.335Z,52.26
2022-10-04T09:43:48.455Z,51.62
2022-10-04T09:47:10.519Z,49.51
2022-10-04T09:50:03.637Z,53.24
2022-10-04T09:52:40.066Z,51.76
2022-10-04T09:55:37.320Z,52.62
2022-10-04T09:58:43.438Z,54.10
2022-10-04T10:01:23.203Z,55.61
2022-10-04T10:04:04.583Z,52.90
2022-10-04T10:06:59.517Z,55.54
2022-10-04T10:09:56.113Z,54.30
2022-10-04T10:12:50.553Z,54.30
2022-10-04T10:15:22.686Z,54.77
2022-10-04T10:18:01.656Z,55.24
2022-10-04T10:20:46.895Z,54.06
2022-10-04T10:23:32.297Z,53.47
2022-10-04T10:26:18.995Z,53.62
2022-10-04T10:29:25.301Z,53.12
2022-10-04T10:32:29.645Z,53.02
2022-10-04T10:35:15.571Z,54.00
2022-10-04T10:38:04.913Z,53.93
2022-10-04T10:40:59.904Z,53.67
2022-10-04T10:43:55.515Z,55.25
2022-10-04T10:46:48.358Z,54.63
2022-10-04T10:49:38.120Z,56.08
2022-10-04T10:52:46.770Z,57.02
2022-10-04T10:55:48.252Z,56.78
2022-10-04T10:58:27.836Z,55.16
2022-10-04T11:01:36.294Z,55.71
2022-10-04T11:04:09.768Z,55.14
2022-10-04T11:07:04.190Z,55.02
2022-10-04T11:10:07.088Z,54.85
2022-10-04T11:13:09.655Z,55.88
2022-10-04T11:15:52.421Z,56.80
2022-10-04T11:18:28.726Z,57.59
2022-10-04T11:21:34.917Z,59.10
2022-10-04T11:24:30.042Z,59.61
2022-10-04T11:27:18.810Z,57.80
2022-10-04T11:30:15.239Z,58.23
2022-10-04T11:33:20.883Z,59.33
2022-10-04T11:36:08.191Z,57.02
2022-10-04T11:38:56.672Z,57.76
2022-10-04T11:41:39.348Z,56.33
2022-10-04T11:44:18.590Z,56.64
2022-10-04T11:46:52.096Z,57.66
2022-10-04T11:49:56.571Z,59.88
2022-10-04T11:53:03.194Z,57.51
2022-10-04T11:55:46.156Z,58.66
2022-10-04T11:58:35.085Z,56.63
2022-10-04T12:01:21.922Z,57.53
2022-10-04T12:04:06.006Z,59.51
2022-10-04T12:06:45.754Z,58.72
2022-10-04T12:09:49.826Z,58.18
2022-10-04T12:12:38.243Z,60.05
2022-10-04T12:15:28.116Z,59.27
2022-10-04T12:18:20.176Z,57.78
2022-10-04T12:21:24.291Z,57.54
2022-10-04T12:24:09.112Z,57.27
2022-10-04T12:27:04.582Z,58.86
2022-10-04T12:29:50.288Z,58.25
2022-10-04T12:32:30.330Z,59.07
2022-10-04T12:35:30.018Z,59.03
2022-10-04T12:38:12.423Z,58.52
2022-10-04T12:41:03.814Z,57.65
2022-10-04T12:43:56.745Z,58.55
2022-10-04T12:46:33.390Z,60.57
2022-10-04T12:49:01.134Z,60.30
2022-10-04T12:51:45.393Z,60.23
2022-10-04T12:54:32.030Z,57.64
2022-10-04T12:57:31.503Z,58.83
2022-10-04T13:00:06.222Z,59.77
2022-10-04T13:02:42.841Z,60.18
2022-10-04T13:05:22.275Z,58.97
2022-10-04T13:08:05.756Z,59.27
2022-10-04T13:10:51.244Z,59.46
2022-10-04T13:13:41.125Z,57.62
2022-10-04T13:19:21.336Z,56.32
2022-10-04T13:22:07.329Z,57.05
2022-10-04T13:25:02.415Z,59.14
2022-10-04T13:27:51.386Z,59.64
2022-10-04T13:30:27.746Z,58.75
2022-10-04T13:33:10.279Z,59.43
2022-10-04T13:35:41.076Z,58.67
2022-10-04T13:38:36.391Z,58.53
2022-10-04T13:41:15.130Z,60.54
2022-10-04T13:44:02.471Z,59.59
2022-10-04T13:46:36.907Z,58.80
2022-10-04T13:49:29.545Z,60.34
2022-10-04T13:52:40.441Z,60.64
2022-10-04T13:55:53.990Z,62.76
2022-10-04T13:59:18.770Z,62.71
2022-10-04T14:02:22.635Z,62.28
2022-10-04T14:05:23.567Z,59.29
2022-10-04T14:07:51.435Z,61.17
2022-10-04T14:10:49.374Z,61.52
2022-10-04T14:14:00.306Z,60.85
2022-10-04T14:16:35.410Z,61.42
2022-10-04T14:19:14.598Z,61.72
2022-10-04T14:21:54.250Z,60.03
2022-10-04T14:24:33.339Z,60.56
2022-10-04T14:27:12.510Z,59.46
2022-10-04T14:29:54.637Z,61.77
2022-10-04T14:32:42.641Z,62.41
2022-10-04T14:35:09.792Z,61.52
2022-10-04T14:38:12.332Z,61.85
2022-10-04T14:41:18.259Z,61.89
2022-10-04T14:43:58.526Z,62.73
2022-10-04T14:46:43.409Z,60.07
2022-10-04T14:49:19.691Z,58.92
2022-10-04T14:52:37.969Z,59.88
2022-10-04T14:55:27.222Z,59.54
2022-10-04T14:58:34.782Z,60.83
2022-10-04T15:01:19.878Z,63.19
2022-10-04T15:04:12.830Z,61.27
2022-10-04T15:07:01.964Z,59.79
2022-10-04T15:09:46.602Z,60.24
2022-10-04T15:13:08.849Z,60.70
2022-10-04T15:15:33.595Z,61.02
2022-10-04T15:18:10.865Z,60.06
2022-10-04T15:20:54.088Z,61.46
2022-10-04T15:23:42.342Z,62.21
2022-10-04T15:26:32.388Z,61.29
2022-10-04T15:29:23.800Z,62.98
2022-10-04T15:32:17.671Z,61.92
2022-10-04T15:35:06.066Z,62.07
2022-10-04T15:37:55.932Z,61.85
2022-10-04T15:40:35.212Z,61.87
2022-10-04T15:43:17.382Z,61.64
2022-10-04T15:46:23.905Z,61.13
2022-10-04T15:49:09.881Z,61.22
2022-10-04T15:51:41.524Z,61.20
2022-10-04T15:54:43.295Z,61.79
2022-10-04T15:57:27.028Z,62.99
2022-10-04T16:00:22.207Z,62.99
2022-10-04T16:02:55.605Z,62.77
2022-10-04T16:05:37.332Z,63.12
2022-10-04T16:08:19.962Z,63.04
2022-10-04T16:11:00.437Z,62.97
2022-10-04T16:13:44.676Z,63.69
2022-10-04T16:16:19.685Z,64.39
2022-10-04T16:19:00.834Z,63.83
2022-10-04T16:21:46.961Z,65.24
2022-10-04T16:24:42.119Z,66.34
2022-10-04T16:27:46.196Z,65.92
2022-10-04T16:30:28.092Z,66.17
2022-10-04T16:32:58.622Z,66.52
2022-10-04T16:35:39.994Z,66.83
2022-10-04T16:38:13.272Z,66.91
2022-10-04T16:40:52.543Z,67.59
2022-10-04T16:43:19.772Z,68.24
2022-10-04T16:46:09.924Z,70.16
2022-10-04T16:48:55.588Z,71.05
2022-10-04T16:51:44.364Z,71.97
2022-10-04T16:54:31.094Z,72.76
2022-10-04T16:56:59.237Z,71.67
2022-10-04T16:59:38.665Z,72.43
2022-10-04T17:02:15.158Z,72.60
2022-10-04T17:05:30.085Z,73.34
2022-10-04T17:08:15.387Z,71.83
2022-10-04T17:10:48.546Z,72.08
2022-10-04T17:13:39.087Z,72.90
2022-10-04T17:16:13.739Z,72.81
2022-10-04T17:19:12.979Z,72.56
2022-10-04T17:21:46.258Z,72.50
2022-10-04T17:24:40.794Z,73.00
2022-10-04T17:27:46.515Z,74.50
2022-10-04T17:30:24.264Z,75.13
2022-10-04T17:33:19.619Z,74.60
2022-10-04T17:36:18.467Z,73.56
2022-10-04T17:39:06.003Z,74.86
2022-10-04T17:41:36.416Z,75.68
2022-10-04T17:44:24.405Z,76.16
2022-10-04T17:47:14.129Z,76.53
2022-10-04T17:50:06.661Z,77.10
2022-10-04T17:53:02.934Z,77.08
2022-10-04T17:55:58.807Z,77.01
2022-10-04T17:58:39.703Z,77.19
2022-10-04T18:01:42.857Z,77.67
2022-10-04T18:04:26.302Z,78.19
2022-10-04T18:06:59.162Z,78.63
2022-10-04T18:09:35.816Z,78.42
2022-10-04T18:12:28.277Z,77.99
2022-10-04T18:15:18.506Z,78.91
2022-10-04T18:17:49.065Z,78.87
2022-10-04T18:20:27.740Z,78.62
2022-10-04T18:22:59.234Z,79.75
2022-10-04T18:25:31.049Z,80.11
2022-10-04T18:28:07.304Z,80.25
2022-10-04T18:30:59.132Z,80.28
2022-10-04T18:33:37.276Z,81.56
2022-10-04T18:36:13.730Z,81.28
2022-10-04T18:38:43.845Z,81.48
2022-10-04T18:41:24.316Z,80.82
2022-10-04T18:44:06.112Z,81.51
2022-10-04T18:46:41.630Z,81.65
2022-10-04T18:49:27.257Z,81.33
2022-10-04T18:52:14.897Z,82.54
2022-10-04T18:55:23.341Z,83.90
2022-10-04T18:58:34.983Z,85.60
2022-10-04T19:01:58.392Z,85.72
2022-10-04T19:04:46.428Z,84.63
2022-10-04T19:07:23.098Z,85.07
2022-10-04T19:10:08.272Z,85.14
2022-10-04T19:12:57.483Z,84.45
2022-10-04T19:16:03.831Z,84.55
2022-10-04T19:18:41.533Z,84.36
2022-10-04T19:21:23.793Z,84.15
2022-10-04T19:24:15.598Z,83.53
2022-10-04T19:26:57.703Z,84.18
2022-10-04T19:30:02.557Z,85.54
2022-10-04T19:32:42.179Z,86.13
2022-10-04T19:35:37.339Z,85.65
2022-10-04T19:38:26.439Z,85.99
2022-10-04T19:40:57.631Z,86.71
2022-10-04T19:43:48.020Z,86.51
2022-10-04T19:46:43.946Z,85.56
2022-10-04T19:49:25.831Z,85.81
2022-10-04T19:52:01.012Z,84.42
2022-10-04T19:54:35.767Z,84.45
2022-10-04T19:57:09.899Z,84.05
2022-10-04T19:59:40.828Z,84.21
2022-10-04T20:02:12.056Z,85.23
2022-10-04T20:04:42.753Z,85.93
2022-10-04T20:07:26.548Z,86.39
2022-10-04T20:10:28.122Z,86.81
2022-10-04T20:13:10.754Z,86.54
2022-10-04T20:15:38.567Z,85.08
2022-10-04T20:18:31.706Z,84.04
2022-10-04T20:21:01.285Z,83.16
2022-10-04T20:23:41.121Z,83.06
2022-10-04T20:26:09.692Z,84.23
2022-10-04T20:28:42.803Z,85.16
2022-10-04T20:31:19.138Z,86.46
2022-10-04T20:33:48.924Z,86.62
2022-10-04T20:36:19.461Z,86.56
2022-10-04T20:39:04.072Z,86.92
2022-10-04T20:41:51.393Z,87.32
2022-10-04T20:44:57.622Z,87.31
2022-10-04T20:47:46.328Z,87.29
2022-10-04T20:50:14.097Z,86.78
2022-10-04T20:52:53.644Z,87.07
2022-10-04T20:55:32.819Z,88.49
2022-10-04T20:58:21.053Z,88.03
2022-10-04T21:00:59.940Z,89.59
2022-10-04T21:03:27.325Z,90.88
2022-10-04T21:06:12.037Z,91.67
2022-10-04T21:08:40.894Z,91.51
2022-10-04T21:11:20.076Z,91.28
2022-10-04T21:13:48.613Z,91.29
2022-10-04T21:16:41.115Z,91.00
2022-10-04T21:19:33.655Z,90.56
2022-10-04T21:22:04.742Z,90.45
2022-10-04T21:24:40.605Z,90.51
2022-10-04T21:27:24.655Z,90.35
2022-10-04T21:29:53.681Z,90.51
2022-10-04T21:32:25.481Z,90.93
2022-10-04T21:34:54.427Z,90.75
2022-10-04T21:37:22.132Z,91.08
2022-10-04T21:39:49.609Z,90.30
2022-10-04T21:42:17.243Z,90.07
2022-10-04T21:44:47.348Z,89.92
2022-10-04T21:47:14.995Z,90.54
2022-10-04T21:49:42.485Z,90.40
2022-10-04T21:52:09.808Z,89.97
2022-10-04T21:54:37.180Z,89.82
2022-10-04T21:57:04.565Z,90.70
2022-10-04T21:59:32.290Z,91.00
2022-10-04T22:01:59.575Z,90.87
2022-10-04T22:04:27.014Z,90.17
2022-10-04T22:06:54.334Z,88.26
2022-10-04T22:09:21.638Z,87.95
2022-10-04T22:11:48.969Z,86.84
2022-10-04T22:14:16.330Z,85.68
2022-10-04T22:16:44.182Z,84.95
2022-10-04T22:19:11.708Z,85.47
2022-10-04T22:21:39.005Z,84.61
2022-10-04T22:24:16.650Z,85.78
2022-10-04T22:26:44.526Z,84.92
2022-10-04T22:29:14.632Z,84.54
2022-10-04T22:31:47.289Z,85.12
2022-10-04T22:34:23.560Z,86.33
2022-10-04T22:36:54.342Z,87.79
2022-10-04T22:39:22.043Z,88.01
2022-10-04T22:41:58.437Z,89.00
2022-10-04T22:44:29.382Z,89.03
2022-10-04T22:46:59.779Z,89.65
2022-10-04T22:49:30.477Z,89.62
2022-10-04T22:51:59.551Z,90.17
2022-10-04T22:54:34.896Z,89.70
2022-10-04T22:57:02.279Z,90.73
2022-10-04T22:59:37.839Z,91.00
2022-10-04T23:02:26.905Z,90.43
2022-10-04T23:04:56.931Z,90.96
2022-10-04T23:07:24.463Z,91.32
2022-10-04T23:09:52.092Z,91.28
2022-10-04T23:12:19.420Z,91.35
2022-10-04T23:14:46.729Z,91.41
2022-10-04T23:17:33.409Z,91.47
2022-10-04T23:20:15.848Z,90.84
2022-10-04T23:22:45.389Z,91.21
2022-10-04T23:25:25.992Z,91.35
2022-10-04T23:27:56.718Z,91.39
2022-10-04T23:30:24.912Z,91.70
2022-10-04T23:32:57.015Z,90.73
2022-10-04T23:35:27.914Z,90.20
2022-10-04T23:37:55.223Z,90.38
2022-10-04T23:40:24.453Z,91.50
2022-10-04T23:42:56.417Z,90.72
2022-10-04T23:45:26.415Z,90.55
2022-10-04T23:47:56.148Z,90.73
2022-10-04T23:50:38.582Z,91.21
2022-10-04T23:53:12.470Z,91.70
2022-10-04T23:55:42.471Z,92.17
2022-10-04T23:58:14.629Z,93.16
